Yilmaz Kaptan — TCAU2 — position and weather

sailwx.info

Track history (hours):
 
Tides and Currents Weather Stations Pressure Air Temp Water Temp Dewpoint Dewpoint Depression Visibility Wind Speed Wind Dir Waves Ship Positions

Yilmaz Kaptan

Last reported at 2018-Jan-21 08:14 UTC. Time now 2018-Jan-21 10:45 UTC.
Position N 40°27' E 029°06'.

Length 73 m; draft 2.7 m.

Type: Cargo ship. MMSI: 271002143.

Date/timePositionNaut miles runAvg speedWind from/ knotsBaromVisibWave heightAir tempDewpointWater temp
2018-Jan-21 08:14N 40°27' E 029°06'2 9.0
2018-Jan-21 08:00N 40°26' E 029°03'273 8.0
2018-Jan-19 22:02N 37°44' E 024°19'0 8.6
2018-Jan-19 22:00N 37°44' E 024°19'7 8.5
2018-Jan-19 21:10N 37°39' E 024°13'5 8.2
2018-Jan-19 20:34N 37°36' E 024°08'1 8.5
2018-Jan-19 20:29N 37°36' E 024°07'18 8.9
2018-Jan-19 18:30N 37°38' E 023°45'4 8.4
2018-Jan-19 18:00N 37°41' E 023°41'4 8.8
2018-Jan-19 17:30N 37°45' E 023°39'4 8.8
2018-Jan-19 17:00N 37°49' E 023°37'4 8.7
2018-Jan-19 16:30N 37°54' E 023°37'4 7.4
2018-Jan-19 16:00N 37°57' E 023°34'4 7.1
2018-Jan-19 15:30N 38°00' E 023°33'2 3.4
2018-Jan-19 14:59N 38°02' E 023°32'0 0.0
2018-Jan-19 14:29N 38°02' E 023°32'0 0.0
2018-Jan-19 13:59N 38°02' E 023°32'0 0.0
2018-Jan-19 13:29N 38°02' E 023°32'0 0.0
2018-Jan-19 12:59N 38°02' E 023°32'0 0.0
2018-Jan-19 12:29N 38°02' E 023°32'0 0.0
2018-Jan-19 11:59N 38°02' E 023°32'0 0.0
2018-Jan-19 11:29N 38°02' E 023°32'0 0.0
2018-Jan-19 10:59N 38°02' E 023°32'0 0.0
2018-Jan-19 10:29N 38°02' E 023°32'0 0.0
2018-Jan-19 09:59N 38°02' E 023°32'0 0.0
2018-Jan-19 09:29N 38°02' E 023°32'0 0.0
2018-Jan-19 08:59N 38°02' E 023°32'0 0.0
2018-Jan-19 08:29N 38°02' E 023°32'0 0.0
2018-Jan-19 07:59N 38°02' E 023°32'0 0.0
2018-Jan-19 07:29N 38°02' E 023°32'0 0.0
2018-Jan-19 06:59N 38°02' E 023°32'0 0.0
2018-Jan-19 06:26N 38°02' E 023°32'0 0.0
2018-Jan-19 05:59N 38°02' E 023°32'0 0.0
2018-Jan-19 05:29N 38°02' E 023°32'0 0.0
2018-Jan-19 04:59N 38°02' E 023°32'0 0.0
2018-Jan-19 04:29N 38°02' E 023°32'0 0.0
2018-Jan-19 03:59N 38°02' E 023°32'0 0.0
2018-Jan-19 03:29N 38°02' E 023°32'0 0.0
2018-Jan-19 02:59N 38°02' E 023°32'0 0.0
2018-Jan-19 02:29N 38°02' E 023°32'0 0.0
2018-Jan-19 01:56N 38°02' E 023°32'0 0.0
2018-Jan-19 01:26N 38°02' E 023°32'0 0.0
2018-Jan-19 00:59N 38°02' E 023°32'0 0.0
2018-Jan-19 00:29N 38°02' E 023°32'0 0.0
2018-Jan-18 23:59N 38°02' E 023°32'0 0.0
2018-Jan-18 23:29N 38°02' E 023°32'0 0.0
2018-Jan-18 22:59N 38°02' E 023°32'0 0.0
2018-Jan-18 22:29N 38°02' E 023°32'0 0.0
2018-Jan-18 21:56N 38°02' E 023°32'0 0.0
2018-Jan-18 21:29N 38°02' E 023°32'0 0.0
2018-Jan-18 20:59N 38°02' E 023°32'0 0.0
2018-Jan-18 20:29N 38°02' E 023°32'0 0.0
2018-Jan-18 19:53N 38°02' E 023°32'0 0.0
2018-Jan-18 19:29N 38°02' E 023°32'0 0.0
2018-Jan-18 18:59N 38°02' E 023°32'0 0.0
2018-Jan-18 18:23N 38°02' E 023°32'0 0.0
2018-Jan-18 17:59N 38°02' E 023°32'0 0.0
2018-Jan-18 17:29N 38°02' E 023°32'0 0.0
2018-Jan-18 16:59N 38°02' E 023°32'0 0.0
2018-Jan-18 16:29N 38°02' E 023°32'0 0.0
2018-Jan-18 15:59N 38°02' E 023°32'0 0.0
2018-Jan-18 15:29N 38°02' E 023°32'0 0.0
2018-Jan-18 14:59N 38°02' E 023°32'0 0.0
2018-Jan-18 14:29N 38°02' E 023°32'0 0.0
2018-Jan-18 13:59N 38°02' E 023°32'0 0.0
2018-Jan-18 13:29N 38°02' E 023°32'0 0.0
2018-Jan-18 12:59N 38°02' E 023°32'0 0.0
2018-Jan-18 12:29N 38°02' E 023°32'0 0.0
2018-Jan-18 11:59N 38°02' E 023°32'0 0.0
2018-Jan-18 11:29N 38°02' E 023°32'0 0.0
2018-Jan-18 10:59N 38°02' E 023°32'0 0.0
2018-Jan-18 10:28N 38°02' E 023°32'0 0.0
2018-Jan-18 09:59N 38°02' E 023°32'0 0.0
2018-Jan-18 09:26N 38°02' E 023°32'0 0.1
2018-Jan-18 09:00N 38°02' E 023°32'2 4.6
2018-Jan-18 08:30N 37°60' E 023°33'3 5.7
2018-Jan-18 08:00N 37°57' E 023°34'2 4.7
2018-Jan-18 07:30N 37°55' E 023°36'2 3.5
2018-Jan-18 07:00N 37°55' E 023°33'0 0.1
2018-Jan-18 06:30N 37°55' E 023°33'0 0.1
2018-Jan-18 06:00N 37°55' E 023°33'0 0.2
2018-Jan-18 05:30N 37°55' E 023°33'0 0.0
2018-Jan-18 05:00N 37°55' E 023°33'0 0.0
2018-Jan-18 04:30N 37°55' E 023°33'0 0.0
2018-Jan-18 04:00N 37°55' E 023°33'0 0.0
2018-Jan-18 03:27N 37°55' E 023°33'0 0.0
2018-Jan-18 03:00N 37°55' E 023°33'0 0.0
2018-Jan-18 02:30N 37°55' E 023°33'0 0.0
2018-Jan-18 02:00N 37°55' E 023°33'0 0.1
2018-Jan-18 01:30N 37°55' E 023°33'0 0.1
2018-Jan-18 01:00N 37°55' E 023°33'0 0.0
2018-Jan-18 00:00N 37°55' E 023°33'0 0.1
2018-Jan-17 23:57N 37°55' E 023°33'  
Track history (hours):
 
Tides and Currents Weather Stations Pressure Air Temp Water Temp Dewpoint Dewpoint Depression Visibility Wind Speed Wind Dir Waves Ship Positions

Yilmaz Kaptan

Last reported at 2018-Jan-21 08:14 UTC. Time now 2018-Jan-21 10:45 UTC.
Position N 40°27' E 029°06'.

Length 73 m; draft 2.7 m.

Type: Cargo ship. MMSI: 271002143.

Date/timePositionNaut miles runAvg speedWind from/ knotsBaromVisibWave heightAir tempDewpointWater temp
2018-Jan-21 08:14N 40°27' E 029°06'2 9.0
2018-Jan-21 08:00N 40°26' E 029°03'273 8.0
2018-Jan-19 22:02N 37°44' E 024°19'0 8.6
2018-Jan-19 22:00N 37°44' E 024°19'7 8.5
2018-Jan-19 21:10N 37°39' E 024°13'5 8.2
2018-Jan-19 20:34N 37°36' E 024°08'1 8.5
2018-Jan-19 20:29N 37°36' E 024°07'18 8.9
2018-Jan-19 18:30N 37°38' E 023°45'4 8.4
2018-Jan-19 18:00N 37°41' E 023°41'4 8.8
2018-Jan-19 17:30N 37°45' E 023°39'4 8.8
2018-Jan-19 17:00N 37°49' E 023°37'4 8.7
2018-Jan-19 16:30N 37°54' E 023°37'4 7.4
2018-Jan-19 16:00N 37°57' E 023°34'4 7.1
2018-Jan-19 15:30N 38°00' E 023°33'2 3.4
2018-Jan-19 14:59N 38°02' E 023°32'0 0.0
2018-Jan-19 14:29N 38°02' E 023°32'0 0.0
2018-Jan-19 13:59N 38°02' E 023°32'0 0.0
2018-Jan-19 13:29N 38°02' E 023°32'0 0.0
2018-Jan-19 12:59N 38°02' E 023°32'0 0.0
2018-Jan-19 12:29N 38°02' E 023°32'0 0.0
2018-Jan-19 11:59N 38°02' E 023°32'0 0.0
2018-Jan-19 11:29N 38°02' E 023°32'0 0.0
2018-Jan-19 10:59N 38°02' E 023°32'0 0.0
2018-Jan-19 10:29N 38°02' E 023°32'0 0.0
2018-Jan-19 09:59N 38°02' E 023°32'0 0.0
2018-Jan-19 09:29N 38°02' E 023°32'0 0.0
2018-Jan-19 08:59N 38°02' E 023°32'0 0.0
2018-Jan-19 08:29N 38°02' E 023°32'0 0.0
2018-Jan-19 07:59N 38°02' E 023°32'0 0.0
2018-Jan-19 07:29N 38°02' E 023°32'0 0.0
2018-Jan-19 06:59N 38°02' E 023°32'0 0.0
2018-Jan-19 06:26N 38°02' E 023°32'0 0.0
2018-Jan-19 05:59N 38°02' E 023°32'0 0.0
2018-Jan-19 05:29N 38°02' E 023°32'0 0.0
2018-Jan-19 04:59N 38°02' E 023°32'0 0.0
2018-Jan-19 04:29N 38°02' E 023°32'0 0.0
2018-Jan-19 03:59N 38°02' E 023°32'0 0.0
2018-Jan-19 03:29N 38°02' E 023°32'0 0.0
2018-Jan-19 02:59N 38°02' E 023°32'0 0.0
2018-Jan-19 02:29N 38°02' E 023°32'0 0.0
2018-Jan-19 01:56N 38°02' E 023°32'0 0.0
2018-Jan-19 01:26N 38°02' E 023°32'0 0.0
2018-Jan-19 00:59N 38°02' E 023°32'0 0.0
2018-Jan-19 00:29N 38°02' E 023°32'0 0.0
2018-Jan-18 23:59N 38°02' E 023°32'0 0.0
2018-Jan-18 23:29N 38°02' E 023°32'0 0.0
2018-Jan-18 22:59N 38°02' E 023°32'0 0.0
2018-Jan-18 22:29N 38°02' E 023°32'0 0.0
2018-Jan-18 21:56N 38°02' E 023°32'0 0.0
2018-Jan-18 21:29N 38°02' E 023°32'0 0.0
2018-Jan-18 20:59N 38°02' E 023°32'0 0.0
2018-Jan-18 20:29N 38°02' E 023°32'0 0.0
2018-Jan-18 19:53N 38°02' E 023°32'0 0.0
2018-Jan-18 19:29N 38°02' E 023°32'0 0.0
2018-Jan-18 18:59N 38°02' E 023°32'0 0.0
2018-Jan-18 18:23N 38°02' E 023°32'0 0.0
2018-Jan-18 17:59N 38°02' E 023°32'0 0.0
2018-Jan-18 17:29N 38°02' E 023°32'0 0.0
2018-Jan-18 16:59N 38°02' E 023°32'0 0.0
2018-Jan-18 16:29N 38°02' E 023°32'0 0.0
2018-Jan-18 15:59N 38°02' E 023°32'0 0.0
2018-Jan-18 15:29N 38°02' E 023°32'0 0.0
2018-Jan-18 14:59N 38°02' E 023°32'0 0.0
2018-Jan-18 14:29N 38°02' E 023°32'0 0.0
2018-Jan-18 13:59N 38°02' E 023°32'0 0.0
2018-Jan-18 13:29N 38°02' E 023°32'0 0.0
2018-Jan-18 12:59N 38°02' E 023°32'0 0.0
2018-Jan-18 12:29N 38°02' E 023°32'0 0.0
2018-Jan-18 11:59N 38°02' E 023°32'0 0.0
2018-Jan-18 11:29N 38°02' E 023°32'0 0.0
2018-Jan-18 10:59N 38°02' E 023°32'0 0.0
2018-Jan-18 10:28N 38°02' E 023°32'0 0.0
2018-Jan-18 09:59N 38°02' E 023°32'0 0.0
2018-Jan-18 09:26N 38°02' E 023°32'0 0.1
2018-Jan-18 09:00N 38°02' E 023°32'2 4.6
2018-Jan-18 08:30N 37°60' E 023°33'3 5.7
2018-Jan-18 08:00N 37°57' E 023°34'2 4.7
2018-Jan-18 07:30N 37°55' E 023°36'2 3.5
2018-Jan-18 07:00N 37°55' E 023°33'0 0.1
2018-Jan-18 06:30N 37°55' E 023°33'0 0.1
2018-Jan-18 06:00N 37°55' E 023°33'0 0.2
2018-Jan-18 05:30N 37°55' E 023°33'0 0.0
2018-Jan-18 05:00N 37°55' E 023°33'0 0.0
2018-Jan-18 04:30N 37°55' E 023°33'0 0.0
2018-Jan-18 04:00N 37°55' E 023°33'0 0.0
2018-Jan-18 03:27N 37°55' E 023°33'0 0.0
2018-Jan-18 03:00N 37°55' E 023°33'0 0.0
2018-Jan-18 02:30N 37°55' E 023°33'0 0.0
2018-Jan-18 02:00N 37°55' E 023°33'0 0.1
2018-Jan-18 01:30N 37°55' E 023°33'0 0.1
2018-Jan-18 01:00N 37°55' E 023°33'0 0.0
2018-Jan-18 00:00N 37°55' E 023°33'0 0.1
2018-Jan-17 23:57N 37°55' E 023°33'  

Dump ship's entire track history